Time;durP1;ratioP1;P1;durP2;ratioP2;P2;SDS_P1;SDS_P2;PMS_P1;PMS_P2;Temp;Humidity;BMP_temperature;BMP_pressure;BME280_temperature;BME280_humidity;BME280_pressure;Samples;Min_cycle;Max_cycle;Signal;HPM_P1;HPM_P2
2022/06/13 00:00:16;;;;;;;18.17;7.07;;;12.60;99.90;;;;;;5074765;28;20045;-70
2022/06/13 00:02:44;;;;;;;9.27;6.07;;;12.60;99.90;;;;;;5056702;28;20392;-69
2022/06/13 00:05:13;;;;;;;15.40;7.00;;;12.50;99.90;;;;;;5056601;28;20084;-69
2022/06/13 00:07:40;;;;;;;13.35;6.68;;;12.50;99.90;;;;;;5074646;28;20133;-69
2022/06/13 00:10:09;;;;;;;16.58;6.35;;;12.50;99.90;;;;;;5056823;28;20088;-72
2022/06/13 00:12:36;;;;;;;20.95;7.07;;;12.40;99.90;;;;;;5074085;28;20090;-69
2022/06/13 00:15:04;;;;;;;13.98;6.78;;;12.40;99.90;;;;;;5056890;28;20056;-69
2022/06/13 00:17:31;;;;;;;15.00;6.47;;;12.40;99.90;;;;;;5041260;28;20106;-69
2022/06/13 00:19:58;;;;;;;14.95;6.60;;;12.30;99.90;;;;;;5036295;28;20061;-70
2022/06/13 00:22:28;;;;;;;13.20;6.57;;;12.30;99.90;;;;;;5054050;28;20531;-69
2022/06/13 00:24:54;;;;;;;15.07;6.15;;;12.30;99.90;;;;;;5054770;28;20087;-70
2022/06/13 00:27:21;;;;;;;17.27;7.10;;;12.30;99.90;;;;;;5035297;28;20049;-69
2022/06/13 00:29:49;;;;;;;13.68;6.10;;;12.20;99.90;;;;;;5054390;28;20114;-69
2022/06/13 00:32:17;;;;;;;15.93;7.00;;;12.20;99.90;;;;;;5054487;28;20045;-69
2022/06/13 00:34:44;;;;;;;13.25;6.90;;;12.20;99.90;;;;;;5053651;28;20053;-70
2022/06/13 00:37:11;;;;;;;12.27;6.80;;;12.20;99.90;;;;;;5036560;28;20551;-69
2022/06/13 00:39:40;;;;;;;17.25;6.60;;;12.20;99.90;;;;;;5054207;28;20044;-69
2022/06/13 00:42:07;;;;;;;22.17;7.13;;;12.20;99.90;;;;;;5035576;28;20567;-69
2022/06/13 00:44:36;;;;;;;13.75;5.55;;;12.30;99.90;;;;;;5063581;28;20447;-70
2022/06/13 00:47:04;;;;;;;14.80;6.40;;;12.30;99.90;;;;;;5055417;28;20048;-68
2022/06/13 00:49:38;;;;;;;14.50;6.13;;;12.40;99.90;;;;;;5073903;28;20174;-69
2022/06/13 00:52:10;;;;;;;16.63;6.40;;;12.40;99.90;;;;;;5056331;28;20485;-70
2022/06/13 00:54:40;;;;;;;13.63;6.35;;;12.40;99.90;;;;;;5073165;28;20501;-69
2022/06/13 00:57:09;;;;;;;16.17;7.00;;;12.50;99.90;;;;;;5056034;28;20113;-69
2022/06/13 00:59:39;;;;;;;12.63;5.93;;;12.50;99.90;;;;;;5073705;28;20048;-69
2022/06/13 01:02:07;;;;;;;15.45;6.50;;;12.50;99.90;;;;;;5073328;28;20060;-69
2022/06/13 01:04:35;;;;;;;14.55;6.38;;;12.60;99.90;;;;;;5073245;28;20052;-70
2022/06/13 01:07:03;;;;;;;14.27;6.10;;;12.50;99.90;;;;;;5055675;28;20091;-69
2022/06/13 01:12:14;;;;;;;17.00;6.05;;;12.60;99.90;;;;;;5053681;28;20080;-69
2022/06/13 01:15:00;;;;;;;17.10;6.18;;;12.60;99.90;;;;;;5053670;28;20095;-69
2022/06/13 01:17:45;;;;;;;12.82;6.15;;;12.60;99.90;;;;;;5052667;28;20086;-69
2022/06/13 01:20:41;;;;;;;18.35;7.35;;;12.60;99.90;;;;;;5035931;28;20126;-70
2022/06/13 01:23:54;;;;;;;13.35;6.35;;;12.70;99.90;;;;;;5034785;28;20052;-70
2022/06/13 01:27:03;;;;;;;12.15;6.43;;;12.60;99.90;;;;;;5057152;28;20036;-69
2022/06/13 01:29:50;;;;;;;14.30;6.88;;;12.60;99.90;;;;;;5054982;28;20149;-69
2022/06/13 01:32:31;;;;;;;16.05;7.65;;;12.60;99.90;;;;;;5055457;28;20048;-70
2022/06/13 01:35:13;;;;;;;14.77;6.63;;;12.60;99.90;;;;;;5055559;28;20393;-70
2022/06/13 01:37:55;;;;;;;12.55;6.85;;;12.60;99.90;;;;;;5043419;28;20072;-68
2022/06/13 01:40:35;;;;;;;13.13;6.35;;;12.60;99.90;;;;;;5035102;28;20049;-69
2022/06/13 01:43:10;;;;;;;12.98;6.90;;;12.60;99.90;;;;;;5035086;28;20057;-69
2022/06/13 01:45:43;;;;;;;18.05;6.90;;;12.70;99.90;;;;;;5034551;28;20464;-69
2022/06/13 01:48:21;;;;;;;20.92;7.50;;;12.70;99.90;;;;;;5035526;28;20084;-69
2022/06/13 01:50:55;;;;;;;15.57;6.20;;;12.80;99.90;;;;;;5052434;28;20053;-69
2022/06/13 01:53:27;;;;;;;14.25;7.03;;;12.80;99.90;;;;;;5035038;28;20114;-69
2022/06/13 01:56:00;;;;;;;15.23;7.38;;;12.80;99.90;;;;;;5053140;28;20071;-69
2022/06/13 01:58:34;;;;;;;13.45;6.75;;;12.80;99.90;;;;;;5039031;28;20108;-69
2022/06/13 02:01:09;;;;;;;16.52;7.28;;;12.80;99.90;;;;;;5055042;28;20049;-69
2022/06/13 02:03:43;;;;;;;19.88;6.75;;;12.80;99.90;;;;;;5054987;28;20393;-69
2022/06/13 02:06:15;;;;;;;14.95;7.00;;;12.80;99.90;;;;;;5039351;28;20048;-69
2022/06/13 02:08:46;;;;;;;18.15;7.10;;;12.80;99.90;;;;;;5052996;28;20048;-70
2022/06/13 02:11:18;;;;;;;15.43;6.75;;;12.90;99.90;;;;;;5052927;28;20049;-71
2022/06/13 02:13:51;;;;;;;21.52;7.88;;;12.90;99.90;;;;;;5034133;28;20506;-69
2022/06/13 02:16:21;;;;;;;15.93;6.95;;;12.90;99.90;;;;;;5052961;28;20053;-70
2022/06/13 02:18:57;;;;;;;18.45;7.38;;;12.90;99.90;;;;;;5034534;28;20452;-70
2022/06/13 02:21:30;;;;;;;19.27;7.50;;;12.90;99.90;;;;;;5052403;28;20463;-69
2022/06/13 02:24:00;;;;;;;13.73;7.18;;;13.00;99.90;;;;;;5052473;28;20467;-70
2022/06/13 02:26:32;;;;;;;15.32;6.78;;;13.00;99.90;;;;;;5052444;28;20049;-70
2022/06/13 02:29:04;;;;;;;15.43;7.28;;;13.00;99.90;;;;;;5052419;28;20107;-70
2022/06/13 02:31:38;;;;;;;17.08;7.32;;;13.00;99.90;;;;;;5035311;28;20520;-70
2022/06/13 02:34:13;;;;;;;20.15;7.28;;;13.00;99.90;;;;;;5035380;28;20125;-70
2022/06/13 02:36:46;;;;;;;17.73;7.47;;;13.00;99.90;;;;;;5072583;28;20088;-70
2022/06/13 02:39:19;;;;;;;14.95;6.43;;;13.10;99.90;;;;;;5054831;28;20535;-70
2022/06/13 02:41:50;;;;;;;16.65;7.30;;;13.10;99.90;;;;;;5053874;28;20447;-70
2022/06/13 02:44:25;;;;;;;15.38;7.25;;;13.10;99.90;;;;;;5054591;28;20455;-70
2022/06/13 02:46:56;;;;;;;20.23;7.47;;;13.10;99.90;;;;;;5054174;28;20407;-71
2022/06/13 02:49:30;;;;;;;14.80;7.50;;;13.10;99.90;;;;;;5073276;28;20052;-69
2022/06/13 02:52:05;;;;;;;13.25;6.05;;;13.20;99.90;;;;;;5076659;28;20052;-70
2022/06/13 02:54:37;;;;;;;18.17;6.57;;;13.00;99.90;;;;;;5075402;28;20549;-70
2022/06/13 02:57:27;;;;;;;12.52;6.65;;;13.00;99.90;;;;;;5058302;28;20056;-70
2022/06/13 03:00:24;;;;;;;14.93;7.38;;;13.00;99.90;;;;;;5058321;28;20053;-70
2022/06/13 03:03:09;;;;;;;12.50;6.90;;;13.00;99.90;;;;;;5051122;28;20416;-70
2022/06/13 03:06:00;;;;;;;15.70;7.53;;;13.00;99.90;;;;;;5058364;28;20055;-71
2022/06/13 03:08:46;;;;;;;15.98;6.82;;;13.00;99.90;;;;;;5057549;28;20086;-71
2022/06/13 03:11:51;;;;;;;16.92;7.28;;;13.00;99.90;;;;;;5057608;28;20052;-71
2022/06/13 03:14:35;;;;;;;19.17;7.35;;;13.00;99.90;;;;;;5052060;28;20045;-70
2022/06/13 03:17:06;;;;;;;16.15;6.18;;;13.00;99.90;;;;;;5056772;28;20408;-71
2022/06/13 03:19:36;;;;;;;;;;;13.00;99.90;;;;;;5076118;28;20488;-71
2022/06/13 03:22:10;;;;;;;19.33;6.47;;;13.00;99.90;;;;;;5075346;28;19982;-69
2022/06/13 03:24:44;;;;;;;18.65;6.32;;;13.00;99.90;;;;;;5075199;28;20340;-70
2022/06/13 03:27:15;;;;;;;15.93;5.53;;;13.10;99.90;;;;;;5075864;28;20100;-70
2022/06/13 03:29:48;;;;;;;13.15;5.78;;;13.10;99.90;;;;;;5056934;28;20115;-70
2022/06/13 03:32:17;;;;;;;11.63;4.97;;;13.10;99.90;;;;;;5048138;28;20612;-70
2022/06/13 03:34:48;;;;;;;15.88;5.50;;;13.00;99.90;;;;;;5054891;28;20082;-70
2022/06/13 03:37:21;;;;;;;11.93;5.72;;;13.10;99.90;;;;;;5037080;28;20057;-69
2022/06/13 03:39:51;;;;;;;12.70;5.72;;;13.10;99.90;;;;;;5055353;28;20057;-70
2022/06/13 03:42:25;;;;;;;11.07;4.75;;;13.10;99.90;;;;;;5037340;28;20093;-70
2022/06/13 03:44:58;;;;;;;15.80;5.40;;;13.10;99.90;;;;;;5036538;28;20102;-69
2022/06/13 03:47:30;;;;;;;12.75;5.28;;;13.10;99.90;;;;;;5049101;28;20049;-69
2022/06/13 03:50:06;;;;;;;18.83;5.03;;;13.10;99.90;;;;;;5056577;28;20508;-70
2022/06/13 03:52:37;;;;;;;13.18;5.10;;;13.10;99.90;;;;;;5056927;28;20049;-70
2022/06/13 03:55:09;;;;;;;12.88;5.75;;;13.10;99.90;;;;;;5057558;28;20067;-69
2022/06/13 03:57:39;;;;;;;12.07;5.00;;;13.20;99.90;;;;;;5055758;28;20048;-69
2022/06/13 04:00:12;;;;;;;10.55;4.40;;;13.20;99.90;;;;;;5036490;28;20085;-70
2022/06/13 04:02:41;;;;;;;10.88;5.80;;;13.20;99.90;;;;;;5054730;28;20061;-70
2022/06/13 04:05:17;;;;;;;8.82;3.97;;;13.20;99.90;;;;;;5054601;28;20049;-70
2022/06/13 04:07:45;;;;;;;12.13;4.85;;;13.30;99.90;;;;;;5037411;28;20045;-69
2022/06/13 04:10:16;;;;;;;14.60;5.28;;;13.30;99.90;;;;;;5054730;28;20559;-70
2022/06/13 04:13:23;;;;;;;8.15;4.10;;;13.30;99.90;;;;;;5040097;28;20472;-69
2022/06/13 04:16:09;;;;;;;10.55;4.07;;;13.40;99.90;;;;;;5056098;28;20058;-69
2022/06/13 04:18:47;;;;;;;11.65;4.90;;;13.40;99.90;;;;;;5056255;28;20048;-70
2022/06/13 04:21:25;;;;;;;10.80;5.03;;;13.50;99.90;;;;;;5074471;28;20049;-70
2022/06/13 04:24:03;;;;;;;13.40;4.43;;;13.50;99.90;;;;;;5056614;28;20052;-71
2022/06/13 04:26:38;;;;;;;9.88;3.75;;;13.50;99.90;;;;;;5046319;28;20056;-70
2022/06/13 04:29:10;;;;;;;11.77;3.97;;;13.50;99.90;;;;;;5054568;28;20049;-69
2022/06/13 04:31:37;;;;;;;12.30;4.50;;;13.50;99.90;;;;;;5054552;28;20071;-69
2022/06/13 04:34:10;;;;;;;9.57;3.85;;;13.50;99.90;;;;;;5035916;28;20049;-69
2022/06/13 04:36:38;;;;;;;8.43;4.20;;;13.50;99.90;;;;;;5054534;28;20114;-70
2022/06/13 04:39:09;;;;;;;10.80;4.28;;;13.50;99.90;;;;;;5036434;28;20049;-70
2022/06/13 04:41:44;;;;;;;9.30;4.03;;;13.50;99.90;;;;;;5048200;28;20084;-69
2022/06/13 04:44:18;;;;;;;13.88;3.60;;;13.60;99.90;;;;;;5074410;28;20174;-70
2022/06/13 04:46:45;;;;;;;11.18;4.30;;;13.60;99.90;;;;;;5073583;28;20044;-70
2022/06/13 04:49:24;;;;;;;11.15;4.15;;;13.70;99.90;;;;;;5073986;28;20048;-70
2022/06/13 04:51:53;;;;;;;7.25;3.50;;;13.80;99.90;;;;;;5056183;28;20052;-70
2022/06/13 04:54:28;;;;;;;11.10;3.60;;;14.00;99.90;;;;;;5055152;28;20071;-71
2022/06/13 04:56:58;;;;;;;13.70;3.88;;;14.20;99.90;;;;;;5038941;28;20131;-70
2022/06/13 04:59:25;;;;;;;9.88;3.25;;;14.30;99.90;;;;;;5036063;28;20135;-71
2022/06/13 05:01:52;;;;;;;11.95;2.78;;;14.30;99.90;;;;;;5060488;28;20094;-71
2022/06/13 05:04:21;;;;;;;8.40;2.75;;;14.40;99.90;;;;;;5073217;28;20492;-70
2022/06/13 05:06:50;;;;;;;9.23;2.97;;;14.30;99.90;;;;;;5073494;28;20114;-71
2022/06/13 05:09:23;;;;;;;7.85;2.65;;;14.20;99.90;;;;;;5055050;28;20511;-70
2022/06/13 05:11:54;;;;;;;8.13;3.22;;;14.10;99.90;;;;;;5055868;28;20451;-70
2022/06/13 05:14:24;;;;;;;9.95;3.00;;;14.10;99.90;;;;;;5055255;28;20102;-71
2022/06/13 05:17:06;;;;;;;10.93;1.90;;;14.10;99.90;;;;;;5055373;28;20052;-70
2022/06/13 05:19:42;;;;;;;9.63;1.95;;;14.00;99.90;;;;;;5054228;28;20455;-70
2022/06/13 05:22:27;;;;;;;3.10;1.30;;;14.00;99.90;;;;;;5055226;28;20581;-70
2022/06/13 05:25:23;;;;;;;4.05;1.60;;;14.10;99.90;;;;;;5037881;28;20564;-71
2022/06/13 05:27:50;;;;;;;3.97;1.10;;;14.20;99.90;;;;;;5053300;28;20485;-70
2022/06/13 05:30:18;;;;;;;4.20;1.25;;;14.30;99.90;;;;;;5034807;28;20065;-71
2022/06/13 05:32:45;;;;;;;3.22;1.40;;;14.30;99.90;;;;;;5035628;28;20382;-72
2022/06/13 05:35:14;;;;;;;4.45;1.48;;;14.50;99.90;;;;;;5035859;28;20049;-69
2022/06/13 05:37:41;;;;;;;4.38;1.42;;;14.60;99.90;;;;;;5052200;28;20126;-70
2022/06/13 05:40:13;;;;;;;3.65;1.38;;;14.80;99.90;;;;;;5053506;28;20053;-70
2022/06/13 05:42:40;;;;;;;11.45;1.35;;;15.00;99.90;;;;;;5052424;28;20057;-70
2022/06/13 05:45:11;;;;;;;5.32;1.63;;;15.30;99.90;;;;;;5052920;28;20554;-70
2022/06/13 05:47:38;;;;;;;9.63;1.63;;;15.40;99.90;;;;;;5053235;28;20115;-71
2022/06/13 05:50:05;;;;;;;4.13;1.00;;;15.40;99.90;;;;;;5052417;28;20099;-70
2022/06/13 05:52:32;;;;;;;6.78;1.20;;;15.20;99.90;;;;;;5034856;28;20095;-71
2022/06/13 05:54:59;;;;;;;6.45;1.30;;;15.10;99.90;;;;;;5071494;28;20060;-70
2022/06/13 05:57:27;;;;;;;3.35;1.10;;;15.10;99.90;;;;;;5063101;28;20049;-70
2022/06/13 05:59:54;;;;;;;4.20;1.30;;;15.00;99.90;;;;;;5068853;28;20048;-71
2022/06/13 06:02:21;;;;;;;6.35;1.48;;;15.10;99.90;;;;;;5052925;28;20102;-72
2022/06/13 06:04:48;;;;;;;5.68;1.63;;;15.30;99.90;;;;;;5052006;28;20122;-72
2022/06/13 06:07:14;;;;;;;14.10;1.80;;;15.30;99.90;;;;;;5052099;28;20504;-71
2022/06/13 06:09:41;;;;;;;4.53;1.30;;;15.30;99.90;;;;;;5070326;28;20056;-71
2022/06/13 06:12:09;;;;;;;8.10;1.70;;;15.30;99.90;;;;;;5066570;28;20110;-71
2022/06/13 06:14:37;;;;;;;4.28;1.67;;;15.30;99.90;;;;;;5069025;28;20052;-72
2022/06/13 06:17:04;;;;;;;3.75;1.35;;;15.50;99.90;;;;;;5069979;28;20049;-71
2022/06/13 06:19:31;;;;;;;3.47;1.88;;;15.80;99.90;;;;;;5052150;28;20053;-71
2022/06/13 06:21:58;;;;;;;9.50;1.65;;;15.80;99.90;;;;;;5055470;28;20056;-71
2022/06/13 06:24:25;;;;;;;4.05;1.60;;;15.80;99.90;;;;;;5053913;28;20048;-70
2022/06/13 06:26:52;;;;;;;6.32;1.65;;;15.80;99.90;;;;;;5073967;28;20416;-70
2022/06/13 06:29:19;;;;;;;5.47;1.67;;;15.80;99.90;;;;;;5074544;28;20094;-70
2022/06/13 06:31:47;;;;;;;6.97;1.60;;;15.80;99.90;;;;;;5055150;28;20044;-70
2022/06/13 06:34:14;;;;;;;8.15;1.75;;;15.90;99.90;;;;;;5055883;28;20526;-70
2022/06/13 06:36:41;;;;;;;7.28;2.00;;;16.10;99.90;;;;;;5057000;28;20052;-71
2022/06/13 06:39:08;;;;;;;7.40;2.13;;;16.30;99.90;;;;;;5055666;28;20036;-71
2022/06/13 06:41:34;;;;;;;5.30;1.83;;;16.60;99.90;;;;;;5056153;28;20052;-70
2022/06/13 06:44:01;;;;;;;5.50;1.80;;;17.00;99.90;;;;;;5056479;28;20122;-71
2022/06/13 06:46:28;;;;;;;6.93;1.90;;;17.50;99.90;;;;;;5073278;28;20048;-71
2022/06/13 06:48:56;;;;;;;3.85;1.60;;;18.10;99.90;;;;;;5055797;28;20076;-71
2022/06/13 06:51:25;;;;;;;6.15;2.10;;;18.50;99.90;;;;;;5056038;28;20449;-71
2022/06/13 07:02:05;;;;;;;5.03;1.65;;;19.60;99.90;;;;;;5051058;28;20127;-71
2022/06/13 07:04:33;;;;;;;6.40;2.20;;;19.40;99.90;;;;;;5053197;28;20040;-73
2022/06/13 07:07:00;;;;;;;6.97;1.98;;;19.10;99.90;;;;;;5055314;28;20600;-71
2022/06/13 07:09:27;;;;;;;7.75;2.40;;;18.80;99.90;;;;;;5052668;28;20045;-71
2022/06/13 07:11:54;;;;;;;4.90;1.70;;;18.50;99.90;;;;;;5074296;28;20101;-71
2022/06/13 07:14:22;;;;;;;7.10;1.70;;;18.20;99.90;;;;;;5055764;28;20178;-72
2022/06/13 07:16:49;;;;;;;6.43;2.10;;;17.80;99.90;;;;;;5073872;28;20044;-71
2022/06/13 07:19:16;;;;;;;7.47;1.92;;;18.20;99.90;;;;;;5073865;28;20562;-70
2022/06/13 07:21:45;;;;;;;5.68;1.95;;;18.70;99.90;;;;;;5070360;28;20110;-71
2022/06/13 07:24:12;;;;;;;4.55;1.63;;;19.20;99.90;;;;;;5073389;28;20056;-71
2022/06/13 07:26:40;;;;;;;8.18;1.45;;;18.90;99.90;;;;;;5056036;28;20489;-73
2022/06/13 07:29:07;;;;;;;8.10;1.77;;;18.50;99.90;;;;;;5052938;28;20044;-71
2022/06/13 07:31:38;;;;;;;5.43;1.40;;;18.20;99.90;;;;;;5074333;28;20075;-70
2022/06/13 07:34:06;;;;;;;9.30;1.70;;;17.90;99.90;;;;;;5055188;28;20127;-71
2022/06/13 07:36:33;;;;;;;4.05;1.42;;;17.70;99.90;;;;;;5054826;28;20106;-71
2022/06/13 07:39:02;;;;;;;5.05;1.70;;;17.40;99.90;;;;;;5055715;28;20056;-71
2022/06/13 07:41:29;;;;;;;7.40;1.60;;;17.40;99.90;;;;;;5073154;28;20048;-70
2022/06/13 07:43:57;;;;;;;6.40;1.77;;;17.30;99.90;;;;;;5053221;28;20044;-70
2022/06/13 07:46:28;;;;;;;6.45;1.45;;;17.40;99.90;;;;;;5051306;28;20098;-71
2022/06/13 07:48:56;;;;;;;5.60;1.33;;;17.70;99.90;;;;;;5053913;28;20091;-71
2022/06/13 07:51:24;;;;;;;5.35;1.52;;;18.20;99.90;;;;;;5071654;28;20044;-71
2022/06/13 07:53:51;;;;;;;5.75;1.50;;;19.20;99.90;;;;;;5072910;28;20101;-71
2022/06/13 07:56:24;;;;;;;4.60;1.23;;;20.10;99.90;;;;;;5068975;28;20090;-72
2022/06/13 07:58:52;;;;;;;5.75;1.80;;;20.20;99.90;;;;;;5056360;28;20438;-71
2022/06/13 08:01:20;;;;;;;8.70;1.35;;;20.20;99.90;;;;;;5053839;28;20596;-73
2022/06/13 08:03:47;;;;;;;3.58;1.10;;;19.80;99.90;;;;;;5072877;28;20046;-72
2022/06/13 08:06:14;;;;;;;5.45;1.30;;;19.40;99.90;;;;;;5049097;28;20162;-71
2022/06/13 08:08:42;;;;;;;4.18;1.38;;;19.40;99.90;;;;;;5053994;28;20049;-71
2022/06/13 08:11:15;;;;;;;6.03;1.90;;;19.20;99.90;;;;;;5072392;28;20055;-71
2022/06/13 08:13:43;;;;;;;4.43;1.40;;;19.40;99.90;;;;;;5055143;28;20098;-69
2022/06/13 08:16:12;;;;;;;3.80;1.10;;;20.10;99.90;;;;;;5043645;28;20443;-71
2022/06/13 08:18:40;;;;;;;4.47;1.13;;;20.60;99.90;;;;;;5065002;28;20488;-71
2022/06/13 08:21:07;;;;;;;3.38;1.00;;;21.20;99.90;;;;;;5068880;28;20052;-72
2022/06/13 08:23:34;;;;;;;5.43;1.25;;;21.60;99.90;;;;;;5071150;28;20059;-71
2022/06/13 08:26:01;;;;;;;5.43;1.10;;;21.80;99.20;;;;;;5050660;28;20139;-71
2022/06/13 08:28:28;;;;;;;3.83;1.10;;;22.60;98.20;;;;;;5072408;28;20461;-71
2022/06/13 08:31:03;;;;;;;4.28;1.08;;;23.10;96.70;;;;;;5053207;28;20054;-72
2022/06/13 08:33:30;;;;;;;4.80;1.00;;;23.50;94.40;;;;;;5052706;28;20044;-72
2022/06/13 08:35:58;;;;;;;4.43;1.27;;;23.30;94.80;;;;;;5071708;28;20045;-72
2022/06/13 08:38:25;;;;;;;4.93;1.05;;;22.90;93.70;;;;;;5053208;28;20051;-73
2022/06/13 08:41:01;;;;;;;4.50;1.27;;;22.60;94.30;;;;;;5049482;28;20454;-72
2022/06/13 08:44:07;;;;;;;9.75;2.15;;;21.60;93.20;;;;;;5049000;28;20496;-72
2022/06/13 08:46:55;;;;;;;5.95;1.45;;;21.00;94.20;;;;;;5068500;28;20392;-73
2022/06/13 08:49:31;;;;;;;4.38;1.33;;;21.40;94.10;;;;;;5068328;28;20492;-72
2022/06/13 08:52:06;;;;;;;3.88;1.00;;;21.90;94.30;;;;;;5070443;28;20357;-71
2022/06/13 08:54:35;;;;;;;5.00;1.00;;;22.40;93.20;;;;;;5049811;28;20048;-72
2022/06/13 08:57:07;;;;;;;3.25;1.17;;;22.40;92.60;;;;;;5070750;28;20407;-72
2022/06/13 08:59:39;;;;;;;2.22;0.90;;;22.60;91.70;;;;;;5070614;28;20086;-72
2022/06/13 09:02:12;;;;;;;4.03;1.45;;;23.20;91.30;;;;;;5070196;28;20110;-72
2022/06/13 09:04:43;;;;;;;3.40;1.02;;;23.90;90.70;;;;;;5071361;28;20048;-72
2022/06/13 09:07:23;;;;;;;3.67;1.52;;;24.00;89.90;;;;;;5069325;28;20045;-72
2022/06/13 09:09:54;;;;;;;5.72;1.55;;;23.80;89.40;;;;;;5051464;28;20090;-71
2022/06/13 09:12:28;;;;;;;3.95;1.13;;;23.70;90.10;;;;;;5052612;28;20103;-72
2022/06/13 09:15:02;;;;;;;3.50;1.30;;;24.20;88.10;;;;;;5050209;28;20060;-72
2022/06/13 09:17:41;;;;;;;7.03;1.25;;;24.70;86.50;;;;;;5053445;28;20041;-72
2022/06/13 09:20:14;;;;;;;4.63;1.07;;;25.00;85.70;;;;;;5054765;28;20048;-71
2022/06/13 09:22:46;;;;;;;5.45;1.48;;;24.60;85.40;;;;;;5049149;28;20311;-71
2022/06/13 09:25:20;;;;;;;6.43;1.58;;;23.70;85.50;;;;;;5051105;28;20044;-72
2022/06/13 09:27:55;;;;;;;5.97;1.85;;;23.30;85.90;;;;;;5053795;28;20459;-71
2022/06/13 09:30:27;;;;;;;5.72;1.67;;;23.10;87.30;;;;;;5066886;28;20536;-72
2022/06/13 09:32:57;;;;;;;6.38;1.35;;;22.90;87.10;;;;;;5052976;28;20060;-72
2022/06/13 09:35:26;;;;;;;8.38;1.30;;;22.90;88.20;;;;;;5047091;28;20044;-72
2022/06/13 09:38:03;;;;;;;5.45;1.48;;;22.50;87.70;;;;;;5051272;28;20481;-72
2022/06/13 09:40:49;;;;;;;6.88;1.58;;;22.20;87.80;;;;;;5052239;28;20445;-72
2022/06/13 09:43:29;;;;;;;7.00;1.65;;;22.20;88.30;;;;;;5066414;28;20141;-72
2022/06/13 09:46:04;;;;;;;5.22;2.30;;;23.10;88.70;;;;;;5051407;28;20053;-72
2022/06/13 09:48:44;;;;;;;5.65;1.40;;;23.70;87.20;;;;;;5051827;28;20086;-71
2022/06/13 09:51:23;;;;;;;7.35;1.42;;;23.70;86.10;;;;;;5053871;28;20138;-72
2022/06/13 09:54:01;;;;;;;5.38;1.52;;;22.80;86.70;;;;;;5048976;28;20052;-71
2022/06/13 09:56:33;;;;;;;9.40;1.73;;;22.30;87.10;;;;;;5049400;28;20082;-72
2022/06/13 09:59:12;;;;;;;5.35;1.92;;;22.60;87.60;;;;;;5050721;28;20075;-73
2022/06/13 10:01:47;;;;;;;4.95;1.45;;;22.60;87.00;;;;;;5050340;28;20057;-71
2022/06/13 10:04:22;;;;;;;4.25;1.42;;;22.40;87.50;;;;;;5045169;28;20454;-73
2022/06/13 10:06:57;;;;;;;5.65;1.70;;;22.80;88.00;;;;;;5042750;28;20044;-72
2022/06/13 10:09:36;;;;;;;4.93;1.63;;;23.30;88.00;;;;;;5041527;28;20388;-72
2022/06/13 10:12:10;;;;;;;5.65;1.20;;;23.90;87.50;;;;;;5045824;28;20067;-73
2022/06/13 10:14:50;;;;;;;4.53;1.15;;;23.90;86.40;;;;;;5049902;28;20114;-72
2022/06/13 10:17:27;;;;;;;4.70;1.38;;;23.70;85.00;;;;;;5049227;28;20455;-72
2022/06/13 10:20:01;;;;;;;3.70;1.20;;;24.20;83.00;;;;;;5062672;28;20098;-72
2022/06/13 10:22:36;;;;;;;7.35;1.35;;;24.40;81.30;;;;;;5046523;28;20138;-72
2022/06/13 10:25:17;;;;;;;7.18;1.88;;;24.00;81.80;;;;;;5044972;28;20575;-72
2022/06/13 10:27:50;;;;;;;7.68;2.50;;;23.70;82.90;;;;;;5064198;28;20048;-73
2022/06/13 10:30:26;;;;;;;4.38;1.45;;;23.80;83.00;;;;;;5044907;28;20387;-70
2022/06/13 10:33:10;;;;;;;8.45;1.63;;;24.20;82.70;;;;;;5049246;28;20508;-71
2022/06/13 10:35:49;;;;;;;4.95;1.60;;;24.40;82.10;;;;;;5067257;28;20492;-71
2022/06/13 10:38:44;;;;;;;7.82;1.70;;;24.40;81.90;;;;;;5051149;28;20155;-73
2022/06/13 10:41:11;;;;;;;6.20;1.75;;;24.10;81.20;;;;;;5067222;28;20549;-70
2022/06/13 10:43:42;;;;;;;9.27;1.73;;;24.00;82.80;;;;;;5048769;28;20053;-72
2022/06/13 10:46:11;;;;;;;7.72;1.80;;;23.90;81.70;;;;;;5068711;28;20129;-72
2022/06/13 10:48:44;;;;;;;5.57;1.53;;;24.00;81.40;;;;;;5051744;28;20106;-71
2022/06/13 10:51:12;;;;;;;12.55;1.95;;;23.80;82.00;;;;;;5069529;28;20110;-71
2022/06/13 10:53:43;;;;;;;8.10;1.90;;;23.70;82.50;;;;;;5050972;28;20049;-71
2022/06/13 10:56:15;;;;;;;8.20;1.73;;;23.30;83.10;;;;;;5051529;28;20052;-71
2022/06/13 10:58:47;;;;;;;6.85;1.67;;;23.10;83.70;;;;;;5063903;28;20138;-71
2022/06/13 11:01:16;;;;;;;8.00;1.80;;;23.00;84.90;;;;;;5066030;28;20048;-72
2022/06/13 11:03:59;;;;;;;9.57;2.03;;;23.30;84.40;;;;;;5066672;28;20466;-71
2022/06/13 11:06:37;;;;;;;6.93;1.98;;;23.30;83.90;;;;;;5030170;28;20049;-71
2022/06/13 11:09:08;;;;;;;6.57;1.52;;;23.30;84.40;;;;;;5070148;28;20565;-70
2022/06/13 11:11:37;;;;;;;5.65;1.90;;;23.20;84.80;;;;;;5071930;28;20549;-71
2022/06/13 11:14:05;;;;;;;7.85;1.70;;;23.10;84.60;;;;;;5054654;28;20581;-72
2022/06/13 11:22:38;;;;;;;9.57;1.85;;;23.80;81.70;;;;;;5047873;28;20511;-72
2022/06/13 11:25:15;;;;;;;5.95;1.50;;;23.60;82.10;;;;;;5052043;28;20396;-73
2022/06/13 11:27:42;;;;;;;7.13;1.40;;;22.80;82.00;;;;;;5070773;28;20451;-72
2022/06/13 11:30:34;;;;;;;4.60;1.83;;;22.80;82.90;;;;;;5050221;28;20151;-72
2022/06/13 11:33:03;;;;;;;5.25;1.90;;;22.70;83.50;;;;;;5069230;28;20044;-71
2022/06/13 11:35:38;;;;;;;5.22;1.50;;;22.40;84.70;;;;;;5072721;28;20106;-71
2022/06/13 11:38:26;;;;;;;9.23;2.03;;;22.20;85.40;;;;;;5050138;28;20059;-71
2022/06/13 11:41:07;;;;;;;7.93;1.58;;;22.60;85.50;;;;;;5072324;28;20052;-72
2022/06/13 11:43:40;;;;;;;6.07;1.40;;;23.50;85.50;;;;;;5053144;28;20492;-71
2022/06/13 11:46:11;;;;;;;8.48;1.90;;;23.60;84.80;;;;;;5072740;28;20045;-72
2022/06/13 11:48:44;;;;;;;11.77;2.05;;;24.10;83.60;;;;;;5053905;28;20514;-72
2022/06/13 11:51:20;;;;;;;7.20;1.80;;;24.00;83.00;;;;;;5054526;28;20119;-72
2022/06/13 11:53:50;;;;;;;9.30;2.15;;;24.20;82.80;;;;;;5052906;28;20098;-73
2022/06/13 11:56:24;;;;;;;9.65;2.15;;;24.00;83.50;;;;;;5072580;28;20198;-72
2022/06/13 11:58:53;;;;;;;9.35;2.55;;;24.50;83.60;;;;;;5072228;28;20048;-72
2022/06/13 12:01:26;;;;;;;6.50;1.50;;;24.60;83.50;;;;;;5050444;28;20436;-72
2022/06/13 12:04:03;;;;;;;8.20;1.85;;;24.10;82.50;;;;;;5071788;28;20048;-71
2022/06/13 12:06:36;;;;;;;6.18;1.90;;;23.70;82.40;;;;;;5054831;28;20061;-72
2022/06/13 12:09:15;;;;;;;7.82;1.80;;;23.50;83.20;;;;;;5054616;28;20067;-72
2022/06/13 12:11:46;;;;;;;5.55;1.65;;;24.10;82.30;;;;;;5071226;28;20466;-71
2022/06/13 12:14:14;;;;;;;6.57;2.17;;;23.80;82.40;;;;;;5072559;28;20052;-71
2022/06/13 12:16:50;;;;;;;6.75;2.30;;;23.60;83.40;;;;;;5070354;28;20040;-71
2022/06/13 12:19:31;;;;;;;6.22;2.05;;;23.60;82.90;;;;;;5070239;28;20406;-72
2022/06/13 12:22:03;;;;;;;4.63;1.75;;;23.40;82.40;;;;;;5054808;28;20055;-73
2022/06/13 12:24:42;;;;;;;6.97;1.45;;;23.60;83.30;;;;;;5069147;28;20048;-72
2022/06/13 12:27:23;;;;;;;4.68;1.45;;;24.20;81.60;;;;;;5048198;28;20409;-72
2022/06/13 12:30:09;;;;;;;6.40;1.70;;;24.10;80.00;;;;;;5049206;28;20549;-70
2022/06/13 12:32:38;;;;;;;5.35;1.95;;;24.00;80.90;;;;;;5050429;28;20054;-71
2022/06/13 12:35:37;;;;;;;6.37;1.80;;;23.60;81.70;;;;;;5067802;28;20075;-71
2022/06/13 12:38:28;;;;;;;7.60;1.93;;;23.30;84.20;;;;;;5068547;28;20778;-71
2022/06/13 12:41:10;;;;;;;4.35;1.27;;;23.20;84.50;;;;;;5067378;28;20051;-70
2022/06/13 12:43:58;;;;;;;4.95;1.38;;;23.20;84.70;;;;;;5070658;28;20126;-72
2022/06/13 12:46:55;;;;;;;6.78;1.70;;;23.60;81.90;;;;;;5071546;28;20048;-71
2022/06/13 12:49:52;;;;;;;5.55;1.80;;;24.10;82.30;;;;;;5053112;28;20090;-71
2022/06/13 12:52:36;;;;;;;3.92;1.60;;;24.30;81.70;;;;;;5049128;28;20052;-72
2022/06/13 12:55:18;;;;;;;3.70;1.10;;;24.20;80.70;;;;;;5071132;28;20397;-71
2022/06/13 12:58:01;;;;;;;4.68;1.77;;;23.80;80.70;;;;;;5052349;28;20060;-72
2022/06/13 13:00:36;;;;;;;6.05;1.10;;;24.10;79.60;;;;;;5053069;28;20044;-70
2022/06/13 13:03:22;;;;;;;6.95;1.85;;;24.00;79.50;;;;;;5070513;28;20082;-71
2022/06/13 13:06:02;;;;;;;5.10;1.30;;;23.70;81.20;;;;;;5050008;28;20515;-72
2022/06/13 13:08:41;;;;;;;6.18;0.85;;;23.90;81.20;;;;;;5049656;28;20057;-71
2022/06/13 13:11:29;;;;;;;3.15;0.98;;;23.60;80.80;;;;;;5071078;28;20052;-71
2022/06/13 13:14:06;;;;;;;4.63;1.00;;;23.60;80.90;;;;;;5052527;28;20492;-71
2022/06/13 13:16:43;;;;;;;4.03;1.02;;;23.40;81.50;;;;;;5049885;28;20102;-71
2022/06/13 13:19:41;;;;;;;6.03;1.30;;;23.60;82.00;;;;;;5053225;28;20048;-71
2022/06/13 13:22:13;;;;;;;4.18;1.30;;;24.00;79.80;;;;;;5069515;28;20106;-72
2022/06/13 13:24:56;;;;;;;6.40;1.15;;;24.40;78.70;;;;;;5053850;28;20454;-72
2022/06/13 13:27:26;;;;;;;3.92;1.10;;;24.50;78.90;;;;;;5052595;28;20493;-71
2022/06/13 13:30:04;;;;;;;7.20;1.58;;;25.10;79.30;;;;;;5070700;28;20378;-72
2022/06/13 13:32:40;;;;;;;2.25;0.65;;;25.20;76.20;;;;;;5049528;28;20129;-71